Time;durP1;ratioP1;P1;durP2;ratioP2;P2;SDS_P1;SDS_P2;PMS_P1;PMS_P2;Temp;Humidity;BMP_temperature;BMP_pressure;BME280_temperature;BME280_humidity;BME280_pressure;Samples;Min_cycle;Max_cycle;Signal;HPM_P1;HPM_P2
2022/07/18 00:01:50;;;;;;;3.97;1.90;;;17.00;68.30;;;;;;5054024;28;20041;-71
2022/07/18 00:04:22;;;;;;;2.10;1.85;;;17.00;68.50;;;;;;5031610;28;20049;-72
2022/07/18 00:06:55;;;;;;;2.17;1.95;;;16.90;68.80;;;;;;5052032;28;20041;-72
2022/07/18 00:09:26;;;;;;;2.85;2.42;;;16.80;69.00;;;;;;5051938;28;20053;-72
2022/07/18 00:11:58;;;;;;;5.38;2.35;;;16.80;69.20;;;;;;5031408;28;20496;-72
2022/07/18 00:14:25;;;;;;;4.20;2.00;;;16.80;69.30;;;;;;5023107;28;20040;-72
2022/07/18 00:16:58;;;;;;;2.55;2.35;;;16.80;69.30;;;;;;5038478;28;20052;-72
2022/07/18 00:19:30;;;;;;;2.38;2.03;;;16.80;69.50;;;;;;5018843;28;20061;-71
2022/07/18 00:22:02;;;;;;;2.85;2.10;;;16.70;69.40;;;;;;5035565;28;20041;-72
2022/07/18 00:24:34;;;;;;;2.40;2.20;;;16.80;69.30;;;;;;5036426;28;20082;-72
2022/07/18 00:27:07;;;;;;;3.10;2.03;;;16.70;69.20;;;;;;5035726;28;20044;-72
2022/07/18 00:29:39;;;;;;;2.65;2.20;;;16.70;69.70;;;;;;5035211;28;20037;-72
2022/07/18 00:32:10;;;;;;;3.13;2.05;;;16.70;69.90;;;;;;5048578;28;20048;-72
2022/07/18 00:34:42;;;;;;;2.30;2.10;;;16.60;70.00;;;;;;5051351;28;20550;-72
2022/07/18 00:37:14;;;;;;;2.60;2.13;;;16.50;70.80;;;;;;5033514;28;20044;-72
2022/07/18 00:39:45;;;;;;;3.28;1.90;;;16.50;70.80;;;;;;5052070;28;20048;-72
2022/07/18 00:42:17;;;;;;;2.25;2.05;;;16.50;71.10;;;;;;5050575;28;20544;-72
2022/07/18 00:44:54;;;;;;;3.63;2.28;;;16.50;71.30;;;;;;5047834;28;20053;-72
2022/07/18 00:47:26;;;;;;;2.40;2.13;;;16.50;71.70;;;;;;5033505;28;20064;-72
2022/07/18 00:49:57;;;;;;;2.65;2.45;;;16.40;72.00;;;;;;5033770;28;20041;-72
2022/07/18 00:52:29;;;;;;;2.53;2.33;;;16.30;72.50;;;;;;5052058;28;20051;-72
2022/07/18 00:54:56;;;;;;;2.40;1.98;;;16.30;72.70;;;;;;5033299;28;20057;-72
2022/07/18 00:57:28;;;;;;;4.32;2.40;;;16.30;73.10;;;;;;5032037;28;20041;-72
2022/07/18 01:02:50;;;;;;;4.80;2.28;;;16.10;74.60;;;;;;5046961;28;20852;-72
2022/07/18 01:05:22;;;;;;;2.30;2.10;;;16.10;73.70;;;;;;5051330;28;20055;-72
2022/07/18 01:07:53;;;;;;;4.05;2.30;;;16.10;74.10;;;;;;5050300;28;20091;-72
2022/07/18 01:10:25;;;;;;;2.50;2.10;;;16.10;74.10;;;;;;5049002;28;20033;-72
2022/07/18 01:12:57;;;;;;;2.72;2.40;;;16.00;74.00;;;;;;5051364;28;20048;-72
2022/07/18 01:15:29;;;;;;;3.28;2.85;;;16.00;74.20;;;;;;5048719;28;20048;-72
2022/07/18 01:18:01;;;;;;;2.90;2.58;;;15.90;74.80;;;;;;5049780;28;20052;-72
2022/07/18 01:20:28;;;;;;;2.75;2.33;;;15.80;75.20;;;;;;5050980;28;20568;-72
2022/07/18 01:23:00;;;;;;;2.75;2.35;;;15.70;75.50;;;;;;5041592;28;20431;-72
2022/07/18 01:25:32;;;;;;;2.72;2.40;;;15.70;75.60;;;;;;5032104;28;20683;-72
2022/07/18 01:28:04;;;;;;;2.47;2.28;;;15.60;75.70;;;;;;5052031;28;20041;-72
2022/07/18 01:30:35;;;;;;;2.40;2.20;;;15.50;75.80;;;;;;5050617;28;20047;-72
2022/07/18 01:33:07;;;;;;;3.05;2.55;;;15.40;75.50;;;;;;5031219;28;20056;-72
2022/07/18 01:35:39;;;;;;;2.85;2.05;;;15.50;75.60;;;;;;5051633;28;20057;-72
2022/07/18 01:38:12;;;;;;;5.30;2.35;;;15.50;76.20;;;;;;5029891;28;20041;-71
2022/07/18 01:40:44;;;;;;;3.55;2.35;;;15.50;75.30;;;;;;5063672;28;20049;-72
2022/07/18 01:43:15;;;;;;;2.35;2.13;;;15.50;76.10;;;;;;5041918;28;20045;-71
2022/07/18 01:45:47;;;;;;;3.08;2.78;;;15.50;76.50;;;;;;5039818;28;20055;-72
2022/07/18 01:48:22;;;;;;;2.42;2.22;;;15.40;77.00;;;;;;5050856;28;20131;-72
2022/07/18 01:50:54;;;;;;;3.38;2.53;;;15.40;77.20;;;;;;5048512;28;20817;-72
2022/07/18 01:53:26;;;;;;;2.80;2.60;;;15.40;77.20;;;;;;5045444;28;20400;-72
2022/07/18 01:55:57;;;;;;;3.92;2.67;;;15.40;77.80;;;;;;5047405;28;20052;-72
2022/07/18 01:58:29;;;;;;;2.70;2.33;;;15.40;77.70;;;;;;5047409;28;20128;-72
2022/07/18 02:01:01;;;;;;;3.83;2.88;;;15.50;77.90;;;;;;5031901;28;20071;-71
2022/07/18 02:03:28;;;;;;;6.78;3.25;;;15.40;78.20;;;;;;5042171;28;20041;-72
2022/07/18 02:05:59;;;;;;;3.88;2.15;;;15.40;78.10;;;;;;5047785;28;20045;-72
2022/07/18 02:08:31;;;;;;;3.15;2.30;;;15.30;78.50;;;;;;5051118;28;20060;-72
2022/07/18 02:11:03;;;;;;;2.80;2.60;;;15.40;78.40;;;;;;5039361;28;20116;-72
2022/07/18 02:13:35;;;;;;;2.90;2.58;;;15.40;78.50;;;;;;5034139;28;20083;-72
2022/07/18 02:16:07;;;;;;;6.72;3.35;;;15.40;78.60;;;;;;5049584;28;20041;-72
2022/07/18 02:18:38;;;;;;;4.22;3.30;;;15.30;78.80;;;;;;5051020;28;20064;-72
2022/07/18 02:21:11;;;;;;;4.90;2.55;;;15.30;78.90;;;;;;5028571;28;20049;-71
2022/07/18 02:23:44;;;;;;;3.15;2.58;;;15.20;79.80;;;;;;5047992;28;20037;-72
2022/07/18 02:26:15;;;;;;;4.40;2.55;;;15.20;79.20;;;;;;5033625;28;20060;-72
2022/07/18 02:28:47;;;;;;;5.60;2.83;;;15.10;79.80;;;;;;5050832;28;20535;-72
2022/07/18 02:31:19;;;;;;;3.38;2.70;;;15.00;80.30;;;;;;5028547;28;20396;-72
2022/07/18 02:33:50;;;;;;;3.75;2.58;;;14.90;80.60;;;;;;5028332;28;20400;-72
2022/07/18 02:36:22;;;;;;;3.03;2.72;;;14.90;80.80;;;;;;5032432;28;20041;-72
2022/07/18 02:38:54;;;;;;;5.35;2.70;;;14.80;80.80;;;;;;5050706;28;20051;-72
2022/07/18 02:41:25;;;;;;;3.97;2.63;;;14.80;80.70;;;;;;5048312;28;20052;-72
2022/07/18 02:43:57;;;;;;;4.43;2.63;;;14.80;80.80;;;;;;5035367;28;20041;-72
2022/07/18 02:46:29;;;;;;;9.88;3.53;;;14.80;81.10;;;;;;5027734;28;20110;-72
2022/07/18 02:49:01;;;;;;;7.75;2.95;;;14.70;81.50;;;;;;5033551;28;20102;-72
2022/07/18 02:51:33;;;;;;;14.93;3.78;;;14.70;81.70;;;;;;5045472;28;20041;-72
2022/07/18 02:54:04;;;;;;;6.43;3.00;;;14.70;81.90;;;;;;5031156;28;20041;-71
2022/07/18 02:56:36;;;;;;;8.68;3.15;;;14.70;82.10;;;;;;5017764;23;20045;-72
2022/07/18 02:59:08;;;;;;;10.25;4.35;;;14.80;82.30;;;;;;5003096;28;20066;-72
2022/07/18 03:01:39;;;;;;;5.68;3.17;;;14.80;82.40;;;;;;5001222;28;20048;-72
2022/07/18 03:04:11;;;;;;;6.63;2.88;;;14.80;82.70;;;;;;4980576;28;20049;-72
2022/07/18 03:06:43;;;;;;;6.63;3.20;;;14.80;82.60;;;;;;4982421;28;20073;-72
2022/07/18 03:09:16;;;;;;;8.05;3.10;;;14.80;82.90;;;;;;4956057;28;20094;-72
2022/07/18 03:11:48;;;;;;;9.27;3.30;;;14.70;83.30;;;;;;4972455;28;20135;-72
2022/07/18 03:14:20;;;;;;;9.93;3.97;;;14.60;84.20;;;;;;4954268;28;20057;-72
2022/07/18 03:16:52;;;;;;;10.52;4.00;;;14.50;85.00;;;;;;4965639;28;20043;-71
2022/07/18 03:19:24;;;;;;;7.60;3.35;;;14.40;85.80;;;;;;4976306;28;20125;-72
2022/07/18 03:21:56;;;;;;;6.88;3.35;;;14.20;86.50;;;;;;4976431;28;20074;-71
2022/07/18 03:24:28;;;;;;;4.65;3.20;;;14.20;86.80;;;;;;4956444;28;20050;-72
2022/07/18 03:27:00;;;;;;;4.85;2.97;;;14.30;87.10;;;;;;4951538;28;20043;-72
2022/07/18 03:29:31;;;;;;;9.35;3.10;;;14.30;87.00;;;;;;4973001;28;20065;-72
2022/07/18 03:32:03;;;;;;;7.22;2.95;;;14.40;87.30;;;;;;4982459;28;20047;-72
2022/07/18 03:34:35;;;;;;;5.93;3.03;;;14.60;86.50;;;;;;4983542;28;20043;-72
2022/07/18 03:37:06;;;;;;;7.60;3.13;;;14.80;85.50;;;;;;4962045;28;20042;-72
2022/07/18 03:39:38;;;;;;;5.18;3.42;;;14.90;85.20;;;;;;4946566;28;20047;-72
2022/07/18 03:42:10;;;;;;;7.30;3.63;;;14.80;85.30;;;;;;4978438;28;20045;-71
2022/07/18 03:44:41;;;;;;;4.30;3.55;;;14.70;85.80;;;;;;4980095;28;20057;-72
2022/07/18 03:47:13;;;;;;;6.50;3.75;;;14.70;86.50;;;;;;4974634;28;20049;-72
2022/07/18 03:49:45;;;;;;;5.43;3.58;;;14.60;86.70;;;;;;4985110;28;20042;-73
2022/07/18 03:52:16;;;;;;;5.93;3.92;;;14.50;87.50;;;;;;4967572;28;20051;-72
2022/07/18 03:54:48;;;;;;;6.10;4.18;;;14.40;88.00;;;;;;4957760;28;20051;-72
2022/07/18 03:57:20;;;;;;;7.95;3.97;;;14.40;88.40;;;;;;4994950;28;20056;-72
2022/07/18 03:59:52;;;;;;;5.45;3.83;;;14.30;88.50;;;;;;4995879;28;20049;-72
2022/07/18 04:02:23;;;;;;;4.57;4.10;;;14.30;89.20;;;;;;4990606;28;20046;-71
2022/07/18 04:04:55;;;;;;;5.90;4.10;;;14.30;89.20;;;;;;5007128;28;20050;-72
2022/07/18 04:07:22;;;;;;;5.18;4.00;;;14.30;89.60;;;;;;4977308;28;20517;-72
2022/07/18 04:09:53;;;;;;;5.75;3.33;;;14.20;90.10;;;;;;4980211;28;20042;-71
2022/07/18 04:12:25;;;;;;;4.93;3.35;;;14.20;90.40;;;;;;5012571;28;20092;-71
2022/07/18 04:14:58;;;;;;;6.97;3.28;;;14.10;90.80;;;;;;5013913;28;20038;-73
2022/07/18 04:17:29;;;;;;;6.05;3.65;;;14.10;90.80;;;;;;4995944;28;20128;-73
2022/07/18 04:20:02;;;;;;;6.72;3.50;;;14.10;91.10;;;;;;4994306;28;20113;-73
2022/07/18 04:23:04;;;;;;;4.13;3.17;;;14.10;91.30;;;;;;4989013;28;20064;-72
2022/07/18 04:25:40;;;;;;;8.02;3.30;;;14.20;91.40;;;;;;4982059;28;20412;-72
2022/07/18 04:28:13;;;;;;;5.03;3.25;;;14.20;91.40;;;;;;4981023;28;20052;-73
2022/07/18 04:30:45;;;;;;;8.50;4.43;;;14.30;91.40;;;;;;4999039;28;20046;-72
2022/07/18 04:33:17;;;;;;;8.60;3.72;;;14.30;91.50;;;;;;4990541;28;20042;-73
2022/07/18 04:35:49;;;;;;;16.30;4.47;;;14.30;91.60;;;;;;4990088;28;20045;-73
2022/07/18 04:38:21;;;;;;;20.58;5.00;;;14.30;91.70;;;;;;4973095;28;20053;-73
2022/07/18 04:40:52;;;;;;;27.70;5.45;;;14.40;91.90;;;;;;4977531;28;20074;-73
2022/07/18 04:43:19;;;;;;;56.90;8.48;;;14.30;92.00;;;;;;4996995;28;20529;-72
2022/07/18 04:45:51;;;;;;;49.47;8.52;;;14.30;92.30;;;;;;4996135;28;20112;-71
2022/07/18 04:48:22;;;;;;;43.22;7.50;;;14.40;92.70;;;;;;4983154;28;20085;-71
2022/07/18 04:50:54;;;;;;;25.80;7.38;;;14.40;92.50;;;;;;4988726;28;20053;-72
2022/07/18 04:53:26;;;;;;;23.27;8.02;;;14.50;92.30;;;;;;5000867;28;20433;-72
2022/07/18 04:55:58;;;;;;;25.25;7.88;;;14.60;92.50;;;;;;4991680;28;20038;-73
2022/07/18 04:58:29;;;;;;;21.00;6.82;;;14.60;92.70;;;;;;4996129;28;20049;-72
2022/07/18 05:01:01;;;;;;;11.15;5.55;;;14.60;92.40;;;;;;4998533;28;20053;-72
2022/07/18 05:03:33;;;;;;;11.80;6.15;;;14.70;92.10;;;;;;4999213;28;20046;-74
2022/07/18 05:06:05;;;;;;;14.98;7.35;;;14.70;92.30;;;;;;4997500;28;20038;-72
2022/07/18 05:08:37;;;;;;;13.90;6.82;;;14.70;92.70;;;;;;4994643;28;20489;-72
2022/07/18 05:11:08;;;;;;;13.25;7.55;;;14.70;92.80;;;;;;4997793;28;20042;-72
2022/07/18 05:13:40;;;;;;;16.75;7.13;;;14.70;92.70;;;;;;4996960;28;20042;-71
2022/07/18 05:16:12;;;;;;;18.58;7.43;;;14.80;92.80;;;;;;4982885;28;20514;-72
2022/07/18 05:18:44;;;;;;;22.73;9.00;;;15.00;93.00;;;;;;5004963;28;20049;-73
2022/07/18 05:21:15;;;;;;;15.70;7.13;;;15.30;92.40;;;;;;4980801;28;20046;-71
2022/07/18 05:23:47;;;;;;;16.02;6.47;;;15.50;92.10;;;;;;4996497;28;20050;-72
2022/07/18 05:26:19;;;;;;;18.15;6.38;;;15.80;91.70;;;;;;4976960;28;20046;-71
2022/07/18 05:28:50;;;;;;;30.17;7.60;;;16.00;91.30;;;;;;5003567;28;20048;-71
2022/07/18 05:31:17;;;;;;;32.88;6.22;;;16.10;90.80;;;;;;4980976;28;20053;-71
2022/07/18 05:33:49;;;;;;;28.73;6.45;;;16.20;90.50;;;;;;5001339;28;20047;-71
2022/07/18 05:36:15;;;;;;;16.90;5.22;;;16.20;90.20;;;;;;4994475;28;20045;-71
2022/07/18 05:38:47;;;;;;;9.38;6.18;;;16.10;90.40;;;;;;5000922;28;20059;-72
2022/07/18 05:41:19;;;;;;;10.68;7.05;;;16.10;90.70;;;;;;4995811;28;20041;-70
2022/07/18 05:43:51;;;;;;;12.73;6.60;;;16.00;90.70;;;;;;4999094;28;20480;-71
2022/07/18 05:46:23;;;;;;;11.60;6.32;;;16.00;90.70;;;;;;5000616;28;20073;-71
2022/07/18 05:48:55;;;;;;;7.32;6.38;;;16.00;90.80;;;;;;5001505;28;20073;-72
2022/07/18 05:51:26;;;;;;;9.98;5.85;;;16.00;91.20;;;;;;4999757;28;20034;-70
2022/07/18 05:53:58;;;;;;;9.60;5.03;;;16.00;91.20;;;;;;5003468;28;20042;-73
2022/07/18 05:56:30;;;;;;;12.57;6.93;;;16.10;91.40;;;;;;4991591;28;20463;-70
2022/07/18 05:59:02;;;;;;;10.13;5.30;;;16.10;91.50;;;;;;4995805;28;20034;-70
2022/07/18 06:01:33;;;;;;;8.60;5.63;;;16.20;91.60;;;;;;4966007;28;20085;-71
2022/07/18 06:04:05;;;;;;;11.02;6.18;;;16.30;92.00;;;;;;5004901;28;20053;-71
2022/07/18 06:06:38;;;;;;;6.63;6.03;;;16.30;92.10;;;;;;4999749;28;20045;-72
2022/07/18 06:09:10;;;;;;;6.10;5.50;;;16.40;92.60;;;;;;4993977;28;20045;-72
2022/07/18 06:11:42;;;;;;;7.53;6.10;;;16.40;92.40;;;;;;4982290;28;20045;-71
2022/07/18 06:14:14;;;;;;;6.45;5.03;;;16.40;92.30;;;;;;4996912;28;20038;-72
2022/07/18 06:16:46;;;;;;;5.82;5.03;;;16.50;92.40;;;;;;4975280;28;20042;-71
2022/07/18 06:19:17;;;;;;;6.63;5.07;;;16.50;91.50;;;;;;4999039;28;20034;-71
2022/07/18 06:21:49;;;;;;;8.50;7.60;;;16.60;91.10;;;;;;5001385;28;20044;-71
2022/07/18 06:24:21;;;;;;;11.68;9.20;;;16.70;90.80;;;;;;4997661;28;20124;-71
2022/07/18 06:26:53;;;;;;;12.38;8.52;;;16.70;90.20;;;;;;4995633;28;20038;-72
2022/07/18 06:29:25;;;;;;;6.78;6.13;;;16.80;90.50;;;;;;4997633;28;20045;-71
2022/07/18 06:31:56;;;;;;;11.88;6.47;;;16.80;90.80;;;;;;4997708;28;20465;-70
2022/07/18 06:34:28;;;;;;;6.85;5.65;;;16.90;91.20;;;;;;4996797;28;20087;-71
2022/07/18 06:37:00;;;;;;;7.03;5.90;;;16.90;91.20;;;;;;4993220;28;20048;-71
2022/07/18 06:39:26;;;;;;;8.43;5.47;;;17.00;91.50;;;;;;5000212;28;20068;-71
2022/07/18 06:41:58;;;;;;;7.85;7.15;;;17.10;90.90;;;;;;4982443;28;20043;-71
2022/07/18 06:44:31;;;;;;;6.55;5.63;;;17.20;88.80;;;;;;4987593;28;20053;-71
2022/07/18 06:47:03;;;;;;;6.47;5.32;;;17.30;87.70;;;;;;5001359;28;20417;-71
2022/07/18 06:49:34;;;;;;;6.22;5.40;;;17.40;87.60;;;;;;4998664;28;20039;-71
2022/07/18 06:52:07;;;;;;;10.50;6.07;;;17.50;87.10;;;;;;5001635;28;20042;-71
2022/07/18 06:54:41;;;;;;;9.32;5.82;;;17.60;88.40;;;;;;4997398;28;20039;-71
2022/07/18 06:57:13;;;;;;;9.77;5.75;;;17.70;89.10;;;;;;4989696;28;20069;-72
2022/07/18 06:59:45;;;;;;;10.02;6.32;;;17.80;88.50;;;;;;5000625;28;20132;-71
2022/07/18 07:02:16;;;;;;;9.77;6.07;;;17.90;89.80;;;;;;4979280;28;20047;-70
2022/07/18 07:04:48;;;;;;;9.77;6.80;;;18.10;90.00;;;;;;4994994;28;20049;-71
2022/07/18 07:07:20;;;;;;;7.45;5.93;;;18.20;89.60;;;;;;5000029;28;20089;-72
2022/07/18 07:09:52;;;;;;;5.45;4.93;;;18.30;89.40;;;;;;5003034;28;20092;-71
2022/07/18 07:12:23;;;;;;;6.18;4.60;;;18.40;88.90;;;;;;5005132;28;20038;-71
2022/07/18 07:14:55;;;;;;;7.88;4.50;;;18.50;87.90;;;;;;5001529;28;20038;-73
2022/07/18 07:17:29;;;;;;;9.43;4.53;;;18.60;87.00;;;;;;4989135;28;20038;-71
2022/07/18 07:20:02;;;;;;;5.47;4.55;;;18.80;87.10;;;;;;4998855;28;20457;-71
2022/07/18 07:22:45;;;;;;;7.63;4.68;;;18.90;87.00;;;;;;4986491;28;20060;-71
2022/07/18 07:25:19;;;;;;;10.93;5.20;;;19.00;87.00;;;;;;4994981;28;20057;-71
2022/07/18 07:27:51;;;;;;;;;;;19.20;86.90;;;;;;5002856;28;20042;-70
2022/07/18 07:30:23;;;;;;;4.75;4.10;;;19.40;86.40;;;;;;4984646;28;20365;-70
2022/07/18 07:32:54;;;;;;;4.57;3.70;;;19.50;85.40;;;;;;5000127;28;20048;-70
2022/07/18 07:35:27;;;;;;;4.57;3.50;;;19.70;85.40;;;;;;5000964;28;20042;-71
2022/07/18 07:37:59;;;;;;;4.57;3.17;;;19.80;83.70;;;;;;4995828;28;20486;-70
2022/07/18 07:40:31;;;;;;;5.03;3.85;;;20.00;82.90;;;;;;5000510;28;20414;-71
2022/07/18 07:43:11;;;;;;;5.10;3.60;;;20.20;82.60;;;;;;5002909;28;20046;-72
2022/07/18 07:45:47;;;;;;;6.15;3.63;;;20.40;81.70;;;;;;4995766;28;20050;-73
2022/07/18 07:48:19;;;;;;;4.45;3.85;;;20.50;81.40;;;;;;5005754;28;20045;-70
2022/07/18 07:50:50;;;;;;;5.45;3.90;;;20.70;80.50;;;;;;5007755;28;20046;-71
2022/07/18 07:53:22;;;;;;;6.32;3.88;;;20.80;80.30;;;;;;5003980;28;20046;-70
2022/07/18 07:55:54;;;;;;;4.85;3.33;;;21.00;79.10;;;;;;5000510;28;20041;-70
2022/07/18 07:58:26;;;;;;;5.88;3.35;;;21.10;78.10;;;;;;4999286;28;20054;-71
2022/07/18 08:00:57;;;;;;;4.93;3.08;;;21.30;77.30;;;;;;4985966;28;20053;-70
2022/07/18 08:03:30;;;;;;;5.68;3.60;;;21.40;76.00;;;;;;5005375;28;20049;-71
2022/07/18 08:05:57;;;;;;;3.88;3.55;;;21.60;76.70;;;;;;4997807;28;20037;-70
2022/07/18 08:08:29;;;;;;;3.75;3.13;;;21.80;75.80;;;;;;5005795;28;20044;-71
2022/07/18 08:11:01;;;;;;;5.75;3.60;;;21.90;74.70;;;;;;5005081;28;20399;-71
2022/07/18 08:13:32;;;;;;;3.30;3.00;;;22.10;74.90;;;;;;4997646;28;20046;-68
2022/07/18 08:16:04;;;;;;;4.97;3.17;;;22.30;74.60;;;;;;4984303;28;20153;-68
2022/07/18 08:18:36;;;;;;;5.72;2.95;;;22.40;74.20;;;;;;5001187;28;20037;-67
2022/07/18 08:21:08;;;;;;;8.43;3.42;;;22.50;72.80;;;;;;5001669;28;20035;-69
2022/07/18 08:23:39;;;;;;;6.43;3.10;;;22.70;72.60;;;;;;5005262;28;20050;-67
2022/07/18 08:26:11;;;;;;;4.22;3.80;;;22.80;72.50;;;;;;4992678;28;20042;-67
2022/07/18 08:28:43;;;;;;;5.25;3.38;;;23.00;72.60;;;;;;5003949;28;20041;-67
2022/07/18 08:31:14;;;;;;;4.32;3.75;;;23.20;69.90;;;;;;5006823;28;20046;-70
2022/07/18 08:33:47;;;;;;;4.57;3.30;;;23.40;70.00;;;;;;4995981;28;20042;-70
2022/07/18 08:36:20;;;;;;;4.55;3.40;;;23.50;69.20;;;;;;4991811;28;20030;-70
2022/07/18 08:38:46;;;;;;;5.30;3.92;;;23.70;68.20;;;;;;5004235;28;20100;-69
2022/07/18 08:41:21;;;;;;;15.77;6.53;;;23.90;67.60;;;;;;4988217;28;20410;-69
2022/07/18 08:43:49;;;;;;;5.10;4.10;;;24.00;64.70;;;;;;5002297;28;20043;-70
2022/07/18 08:46:20;;;;;;;4.50;2.92;;;24.20;64.70;;;;;;5000478;28;20413;-70
2022/07/18 08:48:55;;;;;;;4.75;2.63;;;24.30;63.40;;;;;;4975436;28;20058;-69
2022/07/18 08:51:22;;;;;;;4.90;3.00;;;24.50;63.60;;;;;;4998954;28;20034;-70
2022/07/18 08:53:55;;;;;;;7.10;3.85;;;24.70;60.20;;;;;;4996946;28;20116;-70
2022/07/18 08:56:22;;;;;;;5.43;2.80;;;24.80;60.40;;;;;;5010707;23;20045;-88
2022/07/18 08:58:49;;;;;;;8.98;3.17;;;24.90;61.30;;;;;;4995048;28;20042;-86
2022/07/18 09:01:15;;;;;;;5.78;2.65;;;25.10;61.80;;;;;;5011320;28;20133;-87
2022/07/18 09:03:42;;;;;;;5.40;3.17;;;25.20;60.70;;;;;;4986854;28;20497;-87
2022/07/18 09:06:13;;;;;;;3.45;2.40;;;25.30;59.30;;;;;;5012755;28;20042;-87
2022/07/18 09:08:58;;;;;;;3.25;2.60;;;25.50;58.90;;;;;;4996341;28;20433;-88
2022/07/18 09:11:25;;;;;;;5.32;1.77;;;25.60;58.40;;;;;;5007440;23;20042;-72
2022/07/18 09:13:57;;;;;;;3.03;1.38;;;25.70;54.10;;;;;;5009525;28;20045;-72
2022/07/18 09:16:29;;;;;;;3.15;1.55;;;25.90;52.30;;;;;;5013812;28;20038;-72
2022/07/18 09:19:05;;;;;;;2.42;1.92;;;26.10;51.10;;;;;;5012434;28;20128;-72
2022/07/18 09:21:38;;;;;;;2.25;1.30;;;26.30;51.50;;;;;;5018875;28;20045;-72
2022/07/18 09:24:05;;;;;;;1.77;1.40;;;26.30;51.40;;;;;;5020999;28;20048;-72
2022/07/18 09:26:46;;;;;;;1.52;1.30;;;26.40;48.70;;;;;;5016382;28;20096;-72
2022/07/18 09:29:16;;;;;;;2.80;1.65;;;26.50;47.30;;;;;;5020093;28;20038;-72
2022/07/18 09:31:52;;;;;;;3.35;1.60;;;26.60;47.20;;;;;;5014415;28;20048;-72
2022/07/18 09:34:38;;;;;;;1.55;1.45;;;26.60;45.40;;;;;;5006933;28;20038;-72
2022/07/18 09:37:13;;;;;;;2.85;1.50;;;26.60;45.90;;;;;;5011559;28;20052;-72
2022/07/18 09:39:45;;;;;;;3.13;1.38;;;26.70;46.90;;;;;;5017672;28;20118;-72
2022/07/18 09:42:18;;;;;;;4.07;1.52;;;26.80;48.00;;;;;;5009164;28;20103;-72
2022/07/18 09:44:58;;;;;;;2.03;1.60;;;27.00;47.30;;;;;;5012505;28;20515;-72
2022/07/18 09:47:30;;;;;;;3.50;2.08;;;27.20;48.50;;;;;;5008250;28;20050;-71
2022/07/18 09:50:02;;;;;;;2.95;1.75;;;27.30;48.80;;;;;;5023706;28;20047;-72
2022/07/18 09:52:33;;;;;;;2.42;1.58;;;27.40;47.90;;;;;;5007994;28;20385;-72
2022/07/18 09:55:05;;;;;;;2.13;1.80;;;27.50;45.30;;;;;;5012322;28;20119;-72
2022/07/18 09:57:38;;;;;;;2.55;1.60;;;27.40;45.40;;;;;;4997042;28;20030;-72
2022/07/18 10:00:10;;;;;;;2.55;1.73;;;27.50;46.10;;;;;;5010148;28;21516;-72
2022/07/18 10:02:42;;;;;;;4.07;1.85;;;27.60;47.20;;;;;;5005994;28;20037;-72
2022/07/18 10:05:14;;;;;;;3.35;1.80;;;27.60;46.90;;;;;;5024258;28;20405;-72
2022/07/18 10:07:46;;;;;;;2.23;1.73;;;27.70;46.00;;;;;;5008963;28;20588;-72
2022/07/18 10:10:18;;;;;;;3.87;1.80;;;27.80;45.40;;;;;;5016982;28;20296;-72
2022/07/18 10:12:57;;;;;;;3.10;2.00;;;27.90;47.00;;;;;;5009707;28;20301;-71
2022/07/18 10:15:32;;;;;;;2.03;1.50;;;28.00;46.40;;;;;;5010335;28;20445;-72
2022/07/18 10:18:09;;;;;;;3.38;1.95;;;28.10;45.80;;;;;;4994198;28;20046;-72
2022/07/18 10:20:55;;;;;;;5.55;1.67;;;28.20;45.80;;;;;;5015546;28;20045;-72
2022/07/18 10:23:35;;;;;;;1.90;1.67;;;28.30;45.80;;;;;;5017220;28;20413;-72
2022/07/18 10:26:20;;;;;;;2.25;1.75;;;28.40;46.30;;;;;;5015915;28;20477;-72
2022/07/18 10:29:00;;;;;;;2.22;1.90;;;28.60;45.90;;;;;;5008140;28;20041;-72
2022/07/18 10:31:37;;;;;;;4.07;1.90;;;28.70;45.80;;;;;;5010447;28;20054;-72
2022/07/18 10:34:11;;;;;;;3.55;1.90;;;28.80;44.40;;;;;;5000561;28;20073;-72
2022/07/18 10:36:51;;;;;;;2.28;1.83;;;28.80;44.90;;;;;;5002658;28;20057;-72
2022/07/18 10:39:34;;;;;;;3.58;1.90;;;28.90;43.90;;;;;;5009423;28;20406;-72
2022/07/18 10:42:08;;;;;;;5.80;2.22;;;28.90;43.60;;;;;;5015037;28;20053;-72
2022/07/18 10:44:40;;;;;;;3.92;1.80;;;29.00;44.80;;;;;;5027834;28;20042;-72
2022/07/18 10:47:17;;;;;;;3.80;1.85;;;29.10;44.50;;;;;;5009225;28;20045;-71
2022/07/18 10:49:52;;;;;;;2.88;1.98;;;29.20;43.50;;;;;;5014073;28;20043;-71
2022/07/18 10:52:30;;;;;;;7.00;2.10;;;29.30;44.80;;;;;;5008604;28;20468;-71
2022/07/18 10:55:05;;;;;;;1.90;1.70;;;29.50;44.10;;;;;;5015680;28;20034;-71
2022/07/18 10:58:06;;;;;;;3.22;1.70;;;29.60;43.60;;;;;;4993647;28;20034;-72
2022/07/18 11:00:38;;;;;;;2.58;1.40;;;29.60;43.20;;;;;;5012548;28;20038;-71
2022/07/18 11:03:11;;;;;;;2.28;1.50;;;29.70;42.80;;;;;;5006197;28;20053;-70
2022/07/18 11:05:54;;;;;;;2.55;1.77;;;29.80;42.30;;;;;;5007747;28;20045;-71
2022/07/18 11:08:31;;;;;;;6.68;1.60;;;29.90;43.00;;;;;;5015928;28;20050;-71
2022/07/18 11:11:04;;;;;;;2.33;1.63;;;30.00;41.80;;;;;;5015747;28;20046;-71
2022/07/18 11:13:43;;;;;;;3.55;1.50;;;30.00;42.00;;;;;;5017867;28;20044;-71
2022/07/18 11:16:21;;;;;;;2.55;1.70;;;30.00;42.20;;;;;;5025327;28;20511;-71
2022/07/18 11:18:56;;;;;;;3.90;1.70;;;30.00;41.70;;;;;;5015694;28;20038;-71
2022/07/18 11:21:29;;;;;;;3.25;1.50;;;30.10;42.80;;;;;;5026769;28;20509;-70
2022/07/18 11:24:06;;;;;;;8.65;2.13;;;30.20;43.30;;;;;;5020106;28;20060;-71
2022/07/18 11:26:47;;;;;;;2.90;1.60;;;30.40;42.20;;;;;;5021951;28;20038;-71
2022/07/18 11:29:20;;;;;;;1.73;1.60;;;30.50;41.60;;;;;;5018504;28;20404;-70
2022/07/18 11:31:57;;;;;;;2.65;1.50;;;30.50;41.30;;;;;;5019275;28;20132;-71
2022/07/18 11:34:29;;;;;;;2.20;1.70;;;30.60;40.80;;;;;;5024409;28;20048;-71
2022/07/18 11:37:01;;;;;;;2.60;1.90;;;30.60;40.70;;;;;;5013370;28;20045;-71
2022/07/18 11:39:34;;;;;;;1.80;1.50;;;30.70;41.30;;;;;;5013673;28;20041;-71
2022/07/18 11:42:07;;;;;;;1.73;1.55;;;30.60;40.30;;;;;;5012631;28;20663;-71
2022/07/18 11:44:40;;;;;;;2.88;1.73;;;30.60;42.30;;;;;;5021071;28;20033;-71
2022/07/18 11:47:13;;;;;;;2.83;1.65;;;30.80;40.60;;;;;;5017329;28;20038;-71
2022/07/18 11:49:55;;;;;;;3.80;2.38;;;30.90;40.80;;;;;;5029162;28;20043;-71
2022/07/18 11:52:26;;;;;;;3.60;1.40;;;31.00;41.70;;;;;;5019889;28;20048;-71
2022/07/18 11:55:00;;;;;;;1.77;1.63;;;31.10;39.70;;;;;;5011786;28;20042;-71
2022/07/18 11:57:33;;;;;;;4.10;2.15;;;31.20;39.60;;;;;;5014785;28;20411;-72
2022/07/18 12:00:19;;;;;;;1.85;1.50;;;31.20;39.90;;;;;;5014236;28;20048;-71
2022/07/18 12:03:09;;;;;;;5.20;2.47;;;31.20;39.30;;;;;;5010606;28;20073;-71
2022/07/18 12:05:48;;;;;;;2.17;1.70;;;31.30;40.20;;;;;;5022627;28;20044;-71
2022/07/18 12:08:32;;;;;;;3.90;1.73;;;31.30;40.00;;;;;;5014339;28;20046;-72
2022/07/18 12:11:11;;;;;;;5.05;1.55;;;31.30;39.60;;;;;;5024286;28;20038;-71
2022/07/18 12:13:44;;;;;;;12.27;2.15;;;31.30;39.30;;;;;;5016207;28;20034;-72
2022/07/18 12:16:30;;;;;;;3.47;1.67;;;31.30;40.10;;;;;;5004573;28;20582;-72
2022/07/18 12:19:24;;;;;;;3.08;1.80;;;31.40;39.50;;;;;;5016701;28;20041;-71
2022/07/18 12:22:10;;;;;;;2.40;1.55;;;31.40;39.70;;;;;;5028589;28;20056;-71
2022/07/18 12:24:56;;;;;;;3.90;1.60;;;31.30;38.60;;;;;;5015904;28;20045;-72
2022/07/18 12:27:31;;;;;;;5.18;1.65;;;31.30;39.00;;;;;;5001506;28;20124;-72
2022/07/18 12:30:12;;;;;;;4.00;1.70;;;31.30;39.80;;;;;;4997793;28;20041;-72
2022/07/18 12:33:07;;;;;;;3.53;1.55;;;31.40;39.20;;;;;;5012147;28;20478;-72
2022/07/18 12:35:40;;;;;;;3.72;1.55;;;31.30;38.50;;;;;;5014118;28;20522;-72
2022/07/18 12:38:16;;;;;;;3.20;1.63;;;31.40;38.60;;;;;;5006352;28;20033;-72
2022/07/18 12:40:59;;;;;;;3.25;1.58;;;31.40;38.40;;;;;;5001444;28;20046;-72
2022/07/18 12:43:30;;;;;;;5.03;1.80;;;31.50;38.80;;;;;;5035536;28;20045;-72
2022/07/18 12:46:08;;;;;;;3.17;1.60;;;31.70;39.70;;;;;;5016265;28;20050;-72
2022/07/18 12:48:40;;;;;;;3.55;2.10;;;31.80;40.10;;;;;;5011674;28;20042;-72
2022/07/18 12:51:11;;;;;;;2.20;1.47;;;31.90;38.80;;;;;;5007006;28;20051;-72
2022/07/18 12:53:43;;;;;;;5.15;1.55;;;32.00;37.70;;;;;;5021778;28;20038;-72
2022/07/18 12:56:15;;;;;;;4.80;1.80;;;32.00;38.10;;;;;;5011258;28;20038;-72
2022/07/18 12:58:47;;;;;;;3.22;1.67;;;32.00;38.70;;;;;;5004283;28;20073;-72
2022/07/18 13:01:19;;;;;;;5.20;1.40;;;32.10;38.80;;;;;;5006732;28;20038;-72
2022/07/18 13:03:50;;;;;;;4.70;1.70;;;32.10;38.80;;;;;;4997579;28;20045;-72
2022/07/18 13:06:22;;;;;;;3.60;1.43;;;32.20;38.40;;;;;;5012054;28;20303;-72
2022/07/18 13:08:54;;;;;;;1.53;1.43;;;32.20;38.40;;;;;;5011291;28;20413;-72
2022/07/18 13:11:26;;;;;;;2.83;1.83;;;32.10;37.80;;;;;;5004217;28;20042;-71
2022/07/18 13:13:57;;;;;;;1.50;1.37;;;32.10;38.30;;;;;;5022120;28;20053;-73
2022/07/18 13:16:29;;;;;;;2.73;1.87;;;32.30;38.30;;;;;;5006695;28;20038;-72
2022/07/18 13:19:01;;;;;;;5.60;1.60;;;32.40;38.50;;;;;;4998162;28;20397;-72